Terminal Aerodrome Forecast
Issued by NWS

Current Version | Previous Version | Text Only | Print | Product List | Glossary On
Versions: 1 2 3 4 5 6 7 8 9 10 11 12 13 14 15 16 17 18 19 20
000
FTUS45 KRIW 290529
TAFJAC
TAF
KJAC 290529Z 2906/3006 02008KT P6SM SCT060 BKN100
     FM291500 VRB04KT P6SM SCT060
     FM300200 36006KT P6SM SCT100
      AMD LTD TO CLD VIS AND WIND=

USA.gov is the U.S. government's official web portal to all federal, state and local government web resources and services.